sensor_id;sensor_type;location;lat;lon;timestamp;P1;durP1;ratioP1;P2;durP2;ratioP2
2564;SDS011;1292;48.020;7.822;2022-07-10T05:47:22;2.83;;;2.50;;
2564;SDS011;1292;48.020;7.822;2022-07-10T05:49:49;3.20;;;2.87;;
2564;SDS011;1292;48.020;7.822;2022-07-10T05:52:15;3.00;;;2.80;;
2564;SDS011;1292;48.020;7.822;2022-07-10T05:54:42;3.90;;;2.77;;
2564;SDS011;1292;48.020;7.822;2022-07-10T05:57:09;3.57;;;2.70;;
2564;SDS011;1292;48.020;7.822;2022-07-10T05:59:36;2.43;;;2.33;;
2564;SDS011;1292;48.020;7.822;2022-07-10T06:02:03;2.73;;;2.43;;
2564;SDS011;1292;48.020;7.822;2022-07-10T06:04:31;2.73;;;2.40;;
2564;SDS011;1292;48.020;7.822;2022-07-10T06:06:58;2.70;;;2.50;;
2564;SDS011;1292;48.020;7.822;2022-07-10T06:09:25;3.10;;;2.90;;
2564;SDS011;1292;48.020;7.822;2022-07-10T06:11:52;6.10;;;3.10;;
2564;SDS011;1292;48.020;7.822;2022-07-10T06:14:19;3.43;;;3.10;;
2564;SDS011;1292;48.020;7.822;2022-07-10T06:16:46;3.10;;;2.80;;
2564;SDS011;1292;48.020;7.822;2022-07-10T06:19:13;3.33;;;2.87;;
2564;SDS011;1292;48.020;7.822;2022-07-10T06:21:43;3.57;;;2.87;;
2564;SDS011;1292;48.020;7.822;2022-07-10T06:24:10;12.20;;;3.50;;
2564;SDS011;1292;48.020;7.822;2022-07-10T06:26:37;2.77;;;2.40;;
2564;SDS011;1292;48.020;7.822;2022-07-10T06:29:04;3.70;;;3.27;;
2564;SDS011;1292;48.020;7.822;2022-07-10T06:31:31;4.10;;;3.67;;
2564;SDS011;1292;48.020;7.822;2022-07-10T06:33:57;5.13;;;2.73;;
2564;SDS011;1292;48.020;7.822;2022-07-10T06:36:24;2.97;;;2.77;;
2564;SDS011;1292;48.020;7.822;2022-07-10T06:38:52;5.17;;;4.33;;
2564;SDS011;1292;48.020;7.822;2022-07-10T06:41:19;3.17;;;2.97;;
2564;SDS011;1292;48.020;7.822;2022-07-10T06:43:46;4.70;;;3.00;;
2564;SDS011;1292;48.020;7.822;2022-07-10T06:46:12;4.63;;;2.17;;
2564;SDS011;1292;48.020;7.822;2022-07-10T06:48:39;4.03;;;2.47;;
2564;SDS011;1292;48.020;7.822;2022-07-10T06:51:05;2.60;;;2.20;;
2564;SDS011;1292;48.020;7.822;2022-07-10T06:53:32;2.83;;;2.40;;
2564;SDS011;1292;48.020;7.822;2022-07-10T06:56:01;2.43;;;2.33;;
2564;SDS011;1292;48.020;7.822;2022-07-10T06:58:28;3.10;;;2.80;;
2564;SDS011;1292;48.020;7.822;2022-07-10T07:00:54;2.50;;;2.30;;
2564;SDS011;1292;48.020;7.822;2022-07-10T07:03:21;4.50;;;2.43;;
2564;SDS011;1292;48.020;7.822;2022-07-10T07:05:48;2.60;;;2.40;;
2564;SDS011;1292;48.020;7.822;2022-07-10T07:08:15;2.90;;;2.27;;
2564;SDS011;1292;48.020;7.822;2022-07-10T07:10:41;8.43;;;2.53;;
2564;SDS011;1292;48.020;7.822;2022-07-10T07:13:10;3.37;;;2.73;;
2564;SDS011;1292;48.020;7.822;2022-07-10T07:15:37;2.40;;;2.20;;
2564;SDS011;1292;48.020;7.822;2022-07-10T07:18:07;4.40;;;3.00;;
2564;SDS011;1292;48.020;7.822;2022-07-10T07:20:37;3.70;;;2.60;;
2564;SDS011;1292;48.020;7.822;2022-07-10T07:23:22;3.30;;;2.40;;
2564;SDS011;1292;48.020;7.822;2022-07-10T07:25:49;4.60;;;2.50;;
2564;SDS011;1292;48.020;7.822;2022-07-10T07:28:17;2.00;;;1.90;;
2564;SDS011;1292;48.020;7.822;2022-07-10T07:30:45;4.10;;;2.10;;
2564;SDS011;1292;48.020;7.822;2022-07-10T07:33:12;5.10;;;2.50;;
2564;SDS011;1292;48.020;7.822;2022-07-10T07:35:39;4.13;;;2.20;;
2564;SDS011;1292;48.020;7.822;2022-07-10T07:38:06;2.93;;;2.17;;
2564;SDS011;1292;48.020;7.822;2022-07-10T07:40:33;3.97;;;2.97;;
2564;SDS011;1292;48.020;7.822;2022-07-10T07:43:02;3.13;;;2.60;;
2564;SDS011;1292;48.020;7.822;2022-07-10T07:45:30;3.90;;;2.57;;
2564;SDS011;1292;48.020;7.822;2022-07-10T07:47:57;3.17;;;2.37;;
2564;SDS011;1292;48.020;7.822;2022-07-10T07:50:27;2.53;;;2.33;;
2564;SDS011;1292;48.020;7.822;2022-07-10T07:52:56;2.77;;;2.57;;
2564;SDS011;1292;48.020;7.822;2022-07-10T07:55:23;2.80;;;2.60;;
2564;SDS011;1292;48.020;7.822;2022-07-10T07:57:51;3.33;;;2.43;;
2564;SDS011;1292;48.020;7.822;2022-07-10T08:00:19;2.50;;;2.30;;
2564;SDS011;1292;48.020;7.822;2022-07-10T08:02:49;4.70;;;2.77;;
2564;SDS011;1292;48.020;7.822;2022-07-10T08:05:17;2.40;;;2.23;;
2564;SDS011;1292;48.020;7.822;2022-07-10T08:07:45;3.77;;;2.40;;
2564;SDS011;1292;48.020;7.822;2022-07-10T08:10:14;4.00;;;2.90;;
2564;SDS011;1292;48.020;7.822;2022-07-10T08:12:42;2.63;;;2.43;;
2564;SDS011;1292;48.020;7.822;2022-07-10T08:15:10;2.07;;;1.90;;
2564;SDS011;1292;48.020;7.822;2022-07-10T08:17:38;4.13;;;2.30;;
2564;SDS011;1292;48.020;7.822;2022-07-10T08:20:07;3.23;;;2.23;;
2564;SDS011;1292;48.020;7.822;2022-07-10T08:22:37;4.20;;;2.27;;
2564;SDS011;1292;48.020;7.822;2022-07-10T08:25:04;2.87;;;2.60;;
2564;SDS011;1292;48.020;7.822;2022-07-10T08:27:31;4.63;;;2.30;;
2564;SDS011;1292;48.020;7.822;2022-07-10T08:29:58;5.20;;;3.00;;
2564;SDS011;1292;48.020;7.822;2022-07-10T08:32:25;4.23;;;2.73;;
2564;SDS011;1292;48.020;7.822;2022-07-10T08:34:52;3.23;;;2.67;;
2564;SDS011;1292;48.020;7.822;2022-07-10T08:37:20;3.57;;;2.30;;
2564;SDS011;1292;48.020;7.822;2022-07-10T08:39:47;3.50;;;2.10;;
2564;SDS011;1292;48.020;7.822;2022-07-10T08:42:14;3.57;;;2.77;;
2564;SDS011;1292;48.020;7.822;2022-07-10T08:44:42;5.93;;;2.77;;
2564;SDS011;1292;48.020;7.822;2022-07-10T08:47:09;2.00;;;1.90;;
2564;SDS011;1292;48.020;7.822;2022-07-10T08:49:37;3.23;;;2.30;;
2564;SDS011;1292;48.020;7.822;2022-07-10T08:52:08;2.00;;;1.83;;
2564;SDS011;1292;48.020;7.822;2022-07-10T08:54:40;2.70;;;2.10;;
2564;SDS011;1292;48.020;7.822;2022-07-10T08:57:07;7.03;;;2.57;;
2564;SDS011;1292;48.020;7.822;2022-07-10T08:59:35;3.37;;;2.43;;
2564;SDS011;1292;48.020;7.822;2022-07-10T09:02:02;3.57;;;2.70;;
2564;SDS011;1292;48.020;7.822;2022-07-10T09:04:29;2.77;;;2.20;;
2564;SDS011;1292;48.020;7.822;2022-07-10T09:06:56;3.43;;;2.40;;
2564;SDS011;1292;48.020;7.822;2022-07-10T09:09:22;5.67;;;2.37;;
2564;SDS011;1292;48.020;7.822;2022-07-10T09:11:55;6.53;;;3.60;;
2564;SDS011;1292;48.020;7.822;2022-07-10T09:14:24;3.77;;;3.03;;
2564;SDS011;1292;48.020;7.822;2022-07-10T09:16:53;3.17;;;2.40;;
2564;SDS011;1292;48.020;7.822;2022-07-10T09:19:20;2.70;;;2.13;;
2564;SDS011;1292;48.020;7.822;2022-07-10T09:21:49;4.70;;;3.03;;
2564;SDS011;1292;48.020;7.822;2022-07-10T09:24:17;3.53;;;3.23;;
2564;SDS011;1292;48.020;7.822;2022-07-10T09:26:47;4.47;;;2.60;;
2564;SDS011;1292;48.020;7.822;2022-07-10T09:29:28;6.30;;;2.63;;
2564;SDS011;1292;48.020;7.822;2022-07-10T09:31:56;3.30;;;2.90;;
2564;SDS011;1292;48.020;7.822;2022-07-10T09:34:36;4.23;;;3.43;;
2564;SDS011;1292;48.020;7.822;2022-07-10T09:37:18;8.20;;;2.33;;
2564;SDS011;1292;48.020;7.822;2022-07-10T09:42:36;6.37;;;3.23;;
2564;SDS011;1292;48.020;7.822;2022-07-10T09:45:13;3.27;;;2.97;;
2564;SDS011;1292;48.020;7.822;2022-07-10T09:47:44;3.43;;;3.13;;
2564;SDS011;1292;48.020;7.822;2022-07-10T09:50:19;2.37;;;2.20;;
2564;SDS011;1292;48.020;7.822;2022-07-10T09:52:49;2.77;;;1.80;;
2564;SDS011;1292;48.020;7.822;2022-07-10T09:55:18;2.77;;;2.57;;
2564;SDS011;1292;48.020;7.822;2022-07-10T09:57:51;8.97;;;3.10;;
2564;SDS011;1292;48.020;7.822;2022-07-10T10:00:22;3.90;;;2.73;;
2564;SDS011;1292;48.020;7.822;2022-07-10T10:02:52;4.50;;;2.40;;
2564;SDS011;1292;48.020;7.822;2022-07-10T10:05:27;3.83;;;2.80;;
2564;SDS011;1292;48.020;7.822;2022-07-10T10:08:01;3.33;;;2.27;;
2564;SDS011;1292;48.020;7.822;2022-07-10T10:10:37;3.03;;;2.40;;
2564;SDS011;1292;48.020;7.822;2022-07-10T10:13:10;3.10;;;2.60;;
2564;SDS011;1292;48.020;7.822;2022-07-10T10:15:38;2.67;;;2.47;;
2564;SDS011;1292;48.020;7.822;2022-07-10T10:18:05;4.93;;;2.73;;
2564;SDS011;1292;48.020;7.822;2022-07-10T10:20:32;3.07;;;2.77;;
2564;SDS011;1292;48.020;7.822;2022-07-10T10:23:02;3.50;;;2.40;;
2564;SDS011;1292;48.020;7.822;2022-07-10T10:25:31;2.40;;;2.30;;
2564;SDS011;1292;48.020;7.822;2022-07-10T10:27:59;2.73;;;2.53;;
2564;SDS011;1292;48.020;7.822;2022-07-10T10:30:28;2.30;;;2.10;;
2564;SDS011;1292;48.020;7.822;2022-07-10T10:32:55;3.10;;;2.80;;
2564;SDS011;1292;48.020;7.822;2022-07-10T10:35:41;3.50;;;2.90;;
2564;SDS011;1292;48.020;7.822;2022-07-10T10:38:09;2.93;;;2.60;;
2564;SDS011;1292;48.020;7.822;2022-07-10T10:40:36;3.23;;;2.60;;
2564;SDS011;1292;48.020;7.822;2022-07-10T10:43:16;2.77;;;2.57;;
2564;SDS011;1292;48.020;7.822;2022-07-10T10:45:45;7.80;;;4.77;;
2564;SDS011;1292;48.020;7.822;2022-07-10T10:48:13;3.20;;;2.33;;
2564;SDS011;1292;48.020;7.822;2022-07-10T10:50:41;3.27;;;2.33;;
2564;SDS011;1292;48.020;7.822;2022-07-10T10:53:12;2.80;;;2.37;;
2564;SDS011;1292;48.020;7.822;2022-07-10T10:55:41;3.43;;;2.83;;
2564;SDS011;1292;48.020;7.822;2022-07-10T10:58:39;9.03;;;3.00;;
2564;SDS011;1292;48.020;7.822;2022-07-10T11:01:23;2.87;;;2.67;;
2564;SDS011;1292;48.020;7.822;2022-07-10T11:04:13;2.93;;;2.37;;
2564;SDS011;1292;48.020;7.822;2022-07-10T11:06:41;3.67;;;2.13;;
2564;SDS011;1292;48.020;7.822;2022-07-10T11:09:20;7.63;;;2.63;;
2564;SDS011;1292;48.020;7.822;2022-07-10T11:11:57;6.70;;;3.07;;
2564;SDS011;1292;48.020;7.822;2022-07-10T11:14:26;6.33;;;2.23;;
2564;SDS011;1292;48.020;7.822;2022-07-10T11:16:55;2.30;;;2.10;;
2564;SDS011;1292;48.020;7.822;2022-07-10T11:19:23;4.67;;;2.60;;
2564;SDS011;1292;48.020;7.822;2022-07-10T11:21:54;4.53;;;2.57;;
2564;SDS011;1292;48.020;7.822;2022-07-10T11:24:38;3.30;;;2.33;;
2564;SDS011;1292;48.020;7.822;2022-07-10T11:27:29;3.17;;;2.97;;
2564;SDS011;1292;48.020;7.822;2022-07-10T11:30:18;2.70;;;2.20;;
2564;SDS011;1292;48.020;7.822;2022-07-10T11:32:46;2.90;;;2.60;;
2564;SDS011;1292;48.020;7.822;2022-07-10T11:35:14;4.93;;;2.03;;
2564;SDS011;1292;48.020;7.822;2022-07-10T11:37:48;3.20;;;1.90;;
2564;SDS011;1292;48.020;7.822;2022-07-10T11:40:16;1.83;;;1.73;;
2564;SDS011;1292;48.020;7.822;2022-07-10T11:42:47;2.17;;;1.97;;
2564;SDS011;1292;48.020;7.822;2022-07-10T11:45:23;2.50;;;2.30;;
2564;SDS011;1292;48.020;7.822;2022-07-10T11:47:55;2.70;;;2.50;;
2564;SDS011;1292;48.020;7.822;2022-07-10T11:50:22;2.50;;;1.90;;
2564;SDS011;1292;48.020;7.822;2022-07-10T11:52:50;3.40;;;1.87;;
2564;SDS011;1292;48.020;7.822;2022-07-10T11:55:18;1.70;;;1.60;;
2564;SDS011;1292;48.020;7.822;2022-07-10T11:57:46;1.73;;;1.60;;
2564;SDS011;1292;48.020;7.822;2022-07-10T12:00:20;1.70;;;1.60;;
2564;SDS011;1292;48.020;7.822;2022-07-10T12:02:49;2.70;;;1.73;;
2564;SDS011;1292;48.020;7.822;2022-07-10T12:05:34;1.40;;;1.30;;
2564;SDS011;1292;48.020;7.822;2022-07-10T12:08:01;2.43;;;1.60;;
2564;SDS011;1292;48.020;7.822;2022-07-10T12:10:29;2.47;;;1.40;;
2564;SDS011;1292;48.020;7.822;2022-07-10T12:13:04;1.40;;;1.13;;
2564;SDS011;1292;48.020;7.822;2022-07-10T12:15:32;1.43;;;1.33;;
2564;SDS011;1292;48.020;7.822;2022-07-10T12:17:59;2.20;;;2.00;;
2564;SDS011;1292;48.020;7.822;2022-07-10T12:20:26;3.40;;;1.73;;
2564;SDS011;1292;48.020;7.822;2022-07-10T12:22:54;2.03;;;1.67;;
2564;SDS011;1292;48.020;7.822;2022-07-10T12:25:21;1.57;;;1.47;;
2564;SDS011;1292;48.020;7.822;2022-07-10T12:27:49;4.73;;;1.37;;
2564;SDS011;1292;48.020;7.822;2022-07-10T12:30:20;4.33;;;1.70;;
2564;SDS011;1292;48.020;7.822;2022-07-10T12:32:47;4.40;;;1.53;;
2564;SDS011;1292;48.020;7.822;2022-07-10T12:35:14;2.17;;;1.40;;
2564;SDS011;1292;48.020;7.822;2022-07-10T12:37:47;1.50;;;1.40;;
2564;SDS011;1292;48.020;7.822;2022-07-10T12:43:01;1.37;;;1.27;;
2564;SDS011;1292;48.020;7.822;2022-07-10T12:45:28;2.87;;;1.57;;
2564;SDS011;1292;48.020;7.822;2022-07-10T12:47:55;2.63;;;1.80;;
2564;SDS011;1292;48.020;7.822;2022-07-10T12:50:22;2.30;;;2.20;;
2564;SDS011;1292;48.020;7.822;2022-07-10T12:52:50;2.00;;;1.90;;
2564;SDS011;1292;48.020;7.822;2022-07-10T12:55:35;2.63;;;1.83;;
2564;SDS011;1292;48.020;7.822;2022-07-10T12:58:07;2.50;;;1.63;;
2564;SDS011;1292;48.020;7.822;2022-07-10T13:00:43;1.53;;;1.43;;
2564;SDS011;1292;48.020;7.822;2022-07-10T13:03:16;3.03;;;1.70;;
2564;SDS011;1292;48.020;7.822;2022-07-10T13:05:44;3.73;;;1.50;;
2564;SDS011;1292;48.020;7.822;2022-07-10T13:08:12;1.90;;;1.80;;
2564;SDS011;1292;48.020;7.822;2022-07-10T13:10:42;1.60;;;1.50;;
2564;SDS011;1292;48.020;7.822;2022-07-10T13:13:11;2.13;;;1.93;;
2564;SDS011;1292;48.020;7.822;2022-07-10T13:15:38;4.07;;;1.70;;
2564;SDS011;1292;48.020;7.822;2022-07-10T13:18:12;2.43;;;1.30;;
2564;SDS011;1292;48.020;7.822;2022-07-10T13:20:39;1.47;;;1.37;;
2564;SDS011;1292;48.020;7.822;2022-07-10T13:23:06;1.40;;;1.23;;
2564;SDS011;1292;48.020;7.822;2022-07-10T13:25:33;1.60;;;1.50;;
2564;SDS011;1292;48.020;7.822;2022-07-10T13:28:01;1.33;;;1.23;;
2564;SDS011;1292;48.020;7.822;2022-07-10T13:30:28;4.57;;;1.47;;
2564;SDS011;1292;48.020;7.822;2022-07-10T13:32:55;2.13;;;1.27;;
2564;SDS011;1292;48.020;7.822;2022-07-10T13:35:22;1.80;;;1.20;;
2564;SDS011;1292;48.020;7.822;2022-07-10T13:37:49;2.40;;;1.50;;
2564;SDS011;1292;48.020;7.822;2022-07-10T13:40:17;1.00;;;1.00;;
2564;SDS011;1292;48.020;7.822;2022-07-10T13:42:44;1.90;;;1.47;;
2564;SDS011;1292;48.020;7.822;2022-07-10T13:45:12;1.83;;;1.70;;
2564;SDS011;1292;48.020;7.822;2022-07-10T13:47:39;1.40;;;1.30;;
2564;SDS011;1292;48.020;7.822;2022-07-10T13:50:06;1.70;;;1.60;;
2564;SDS011;1292;48.020;7.822;2022-07-10T13:52:33;1.40;;;1.30;;
2564;SDS011;1292;48.020;7.822;2022-07-10T13:55:00;2.27;;;1.37;;
2564;SDS011;1292;48.020;7.822;2022-07-10T13:57:29;1.20;;;1.10;;
2564;SDS011;1292;48.020;7.822;2022-07-10T13:59:56;2.77;;;1.53;;
2564;SDS011;1292;48.020;7.822;2022-07-10T14:02:24;1.40;;;1.30;;
2564;SDS011;1292;48.020;7.822;2022-07-10T14:04:51;3.23;;;1.17;;
2564;SDS011;1292;48.020;7.822;2022-07-10T14:07:17;1.30;;;1.10;;
2564;SDS011;1292;48.020;7.822;2022-07-10T14:09:44;1.43;;;0.97;;
2564;SDS011;1292;48.020;7.822;2022-07-10T14:12:11;1.57;;;1.20;;
2564;SDS011;1292;48.020;7.822;2022-07-10T14:14:38;1.87;;;1.30;;
2564;SDS011;1292;48.020;7.822;2022-07-10T14:17:05;1.40;;;1.10;;
2564;SDS011;1292;48.020;7.822;2022-07-10T14:19:33;1.53;;;1.23;;
2564;SDS011;1292;48.020;7.822;2022-07-10T14:22:00;1.90;;;1.03;;
2564;SDS011;1292;48.020;7.822;2022-07-10T14:24:27;1.30;;;1.20;;
2564;SDS011;1292;48.020;7.822;2022-07-10T14:26:54;1.77;;;1.00;;
2564;SDS011;1292;48.020;7.822;2022-07-10T14:29:22;2.73;;;1.27;;
2564;SDS011;1292;48.020;7.822;2022-07-10T14:31:49;2.60;;;1.40;;
2564;SDS011;1292;48.020;7.822;2022-07-10T14:34:17;1.73;;;1.10;;
2564;SDS011;1292;48.020;7.822;2022-07-10T14:36:45;7.70;;;1.80;;
2564;SDS011;1292;48.020;7.822;2022-07-10T14:39:12;1.73;;;1.10;;
2564;SDS011;1292;48.020;7.822;2022-07-10T14:41:39;2.40;;;1.07;;
2564;SDS011;1292;48.020;7.822;2022-07-10T14:44:05;2.40;;;0.83;;
2564;SDS011;1292;48.020;7.822;2022-07-10T14:46:32;0.80;;;0.70;;
2564;SDS011;1292;48.020;7.822;2022-07-10T14:48:59;3.43;;;1.67;;
2564;SDS011;1292;48.020;7.822;2022-07-10T14:51:27;2.03;;;1.23;;
2564;SDS011;1292;48.020;7.822;2022-07-10T14:53:55;1.93;;;0.90;;
2564;SDS011;1292;48.020;7.822;2022-07-10T14:56:23;2.47;;;1.50;;
2564;SDS011;1292;48.020;7.822;2022-07-10T14:58:50;1.23;;;0.93;;
2564;SDS011;1292;48.020;7.822;2022-07-10T15:01:17;1.10;;;1.00;;
2564;SDS011;1292;48.020;7.822;2022-07-10T15:03:44;3.73;;;1.00;;
2564;SDS011;1292;48.020;7.822;2022-07-10T15:06:11;6.93;;;1.10;;
2564;SDS011;1292;48.020;7.822;2022-07-10T15:08:37;2.40;;;1.00;;
2564;SDS011;1292;48.020;7.822;2022-07-10T15:11:06;1.20;;;0.90;;
2564;SDS011;1292;48.020;7.822;2022-07-10T15:13:32;1.77;;;0.90;;
2564;SDS011;1292;48.020;7.822;2022-07-10T15:15:59;1.20;;;1.00;;
2564;SDS011;1292;48.020;7.822;2022-07-10T15:18:26;2.13;;;1.07;;
2564;SDS011;1292;48.020;7.822;2022-07-10T15:20:53;1.40;;;0.90;;
2564;SDS011;1292;48.020;7.822;2022-07-10T15:23:20;1.37;;;0.80;;
2564;SDS011;1292;48.020;7.822;2022-07-10T15:25:47;0.90;;;0.67;;
2564;SDS011;1292;48.020;7.822;2022-07-10T15:28:15;1.73;;;1.20;;
2564;SDS011;1292;48.020;7.822;2022-07-10T15:30:42;1.23;;;0.87;;
2564;SDS011;1292;48.020;7.822;2022-07-10T15:33:09;2.80;;;0.83;;
2564;SDS011;1292;48.020;7.822;2022-07-10T15:35:36;1.13;;;0.60;;
2564;SDS011;1292;48.020;7.822;2022-07-10T15:38:02;0.90;;;0.67;;
2564;SDS011;1292;48.020;7.822;2022-07-10T15:40:29;0.83;;;0.83;;
2564;SDS011;1292;48.020;7.822;2022-07-10T15:42:57;3.20;;;0.93;;
2564;SDS011;1292;48.020;7.822;2022-07-10T15:45:25;1.07;;;0.90;;
2564;SDS011;1292;48.020;7.822;2022-07-10T15:47:52;0.77;;;0.70;;
2564;SDS011;1292;48.020;7.822;2022-07-10T15:50:19;0.60;;;0.60;;
2564;SDS011;1292;48.020;7.822;2022-07-10T15:52:46;1.50;;;0.70;;
2564;SDS011;1292;48.020;7.822;2022-07-10T15:55:13;0.63;;;0.60;;
2564;SDS011;1292;48.020;7.822;2022-07-10T15:57:40;1.03;;;0.83;;
2564;SDS011;1292;48.020;7.822;2022-07-10T16:00:07;1.97;;;0.80;;
2564;SDS011;1292;48.020;7.822;2022-07-10T16:02:37;1.10;;;1.00;;
2564;SDS011;1292;48.020;7.822;2022-07-10T16:05:04;0.70;;;0.70;;
2564;SDS011;1292;48.020;7.822;2022-07-10T16:07:32;2.10;;;0.70;;
2564;SDS011;1292;48.020;7.822;2022-07-10T16:09:59;1.27;;;1.07;;
2564;SDS011;1292;48.020;7.822;2022-07-10T16:12:26;0.70;;;0.60;;
2564;SDS011;1292;48.020;7.822;2022-07-10T16:14:52;1.43;;;0.80;;
2564;SDS011;1292;48.020;7.822;2022-07-10T16:17:19;3.60;;;1.00;;
2564;SDS011;1292;48.020;7.822;2022-07-10T16:19:48;1.70;;;0.80;;
2564;SDS011;1292;48.020;7.822;2022-07-10T16:22:14;0.97;;;0.87;;
2564;SDS011;1292;48.020;7.822;2022-07-10T16:24:41;0.70;;;0.70;;
2564;SDS011;1292;48.020;7.822;2022-07-10T16:27:22;2.30;;;1.20;;
2564;SDS011;1292;48.020;7.822;2022-07-10T16:29:49;2.20;;;0.93;;
2564;SDS011;1292;48.020;7.822;2022-07-10T16:32:16;1.40;;;1.20;;
2564;SDS011;1292;48.020;7.822;2022-07-10T16:34:44;0.80;;;0.80;;
2564;SDS011;1292;48.020;7.822;2022-07-10T16:37:13;0.60;;;0.60;;
2564;SDS011;1292;48.020;7.822;2022-07-10T16:39:40;2.90;;;0.93;;
2564;SDS011;1292;48.020;7.822;2022-07-10T16:42:06;1.03;;;0.93;;
2564;SDS011;1292;48.020;7.822;2022-07-10T16:44:33;2.50;;;0.93;;
2564;SDS011;1292;48.020;7.822;2022-07-10T16:47:00;2.17;;;1.10;;
2564;SDS011;1292;48.020;7.822;2022-07-10T16:49:27;1.97;;;1.00;;
2564;SDS011;1292;48.020;7.822;2022-07-10T16:51:54;1.50;;;0.87;;
2564;SDS011;1292;48.020;7.822;2022-07-10T16:54:22;2.23;;;0.97;;
2564;SDS011;1292;48.020;7.822;2022-07-10T16:56:49;1.10;;;0.90;;
2564;SDS011;1292;48.020;7.822;2022-07-10T16:59:16;2.20;;;1.00;;
2564;SDS011;1292;48.020;7.822;2022-07-10T17:01:42;14.53;;;1.50;;
2564;SDS011;1292;48.020;7.822;2022-07-10T17:04:09;1.17;;;1.03;;
2564;SDS011;1292;48.020;7.822;2022-07-10T17:06:36;1.50;;;1.20;;
2564;SDS011;1292;48.020;7.822;2022-07-10T17:09:03;0.80;;;0.80;;
2564;SDS011;1292;48.020;7.822;2022-07-10T17:11:31;1.30;;;1.10;;
2564;SDS011;1292;48.020;7.822;2022-07-10T17:13:58;3.20;;;1.10;;
2564;SDS011;1292;48.020;7.822;2022-07-10T17:16:25;1.40;;;1.00;;
2564;SDS011;1292;48.020;7.822;2022-07-10T17:18:52;0.90;;;0.90;;
2564;SDS011;1292;48.020;7.822;2022-07-10T17:21:19;1.23;;;0.90;;
2564;SDS011;1292;48.020;7.822;2022-07-10T17:23:47;2.70;;;1.00;;
2564;SDS011;1292;48.020;7.822;2022-07-10T17:26:14;1.53;;;0.70;;
2564;SDS011;1292;48.020;7.822;2022-07-10T17:28:42;2.00;;;0.90;;
2564;SDS011;1292;48.020;7.822;2022-07-10T17:31:09;1.50;;;0.80;;
2564;SDS011;1292;48.020;7.822;2022-07-10T17:33:36;3.20;;;1.10;;
2564;SDS011;1292;48.020;7.822;2022-07-10T17:36:03;1.10;;;0.90;;
2564;SDS011;1292;48.020;7.822;2022-07-10T17:38:30;1.73;;;0.90;;
2564;SDS011;1292;48.020;7.822;2022-07-10T17:40:57;1.10;;;1.00;;
2564;SDS011;1292;48.020;7.822;2022-07-10T17:43:24;3.00;;;1.37;;
2564;SDS011;1292;48.020;7.822;2022-07-10T17:45:52;3.17;;;0.90;;
2564;SDS011;1292;48.020;7.822;2022-07-10T17:48:19;1.23;;;1.10;;
2564;SDS011;1292;48.020;7.822;2022-07-10T17:50:45;1.10;;;0.70;;
2564;SDS011;1292;48.020;7.822;2022-07-10T17:53:12;1.93;;;1.03;;
2564;SDS011;1292;48.020;7.822;2022-07-10T17:55:39;2.85;;;1.00;;
2564;SDS011;1292;48.020;7.822;2022-07-10T17:58:06;1.07;;;0.70;;
2564;SDS011;1292;48.020;7.822;2022-07-10T18:00:33;1.27;;;1.07;;
2564;SDS011;1292;48.020;7.822;2022-07-10T18:03:01;1.10;;;1.00;;
2564;SDS011;1292;48.020;7.822;2022-07-10T18:05:29;0.90;;;0.90;;
2564;SDS011;1292;48.020;7.822;2022-07-10T18:07:55;2.93;;;1.20;;
2564;SDS011;1292;48.020;7.822;2022-07-10T18:10:22;1.10;;;0.90;;
2564;SDS011;1292;48.020;7.822;2022-07-10T18:12:49;2.70;;;0.97;;
2564;SDS011;1292;48.020;7.822;2022-07-10T18:15:16;0.70;;;0.70;;
2564;SDS011;1292;48.020;7.822;2022-07-10T18:17:43;2.17;;;1.97;;
2564;SDS011;1292;48.020;7.822;2022-07-10T18:20:12;3.10;;;1.00;;
2564;SDS011;1292;48.020;7.822;2022-07-10T18:22:39;1.43;;;1.30;;
2564;SDS011;1292;48.020;7.822;2022-07-10T18:25:06;0.80;;;0.70;;
2564;SDS011;1292;48.020;7.822;2022-07-10T18:27:34;1.10;;;1.00;;
2564;SDS011;1292;48.020;7.822;2022-07-10T18:30:01;1.53;;;0.90;;
2564;SDS011;1292;48.020;7.822;2022-07-10T18:32:28;1.77;;;1.00;;
2564;SDS011;1292;48.020;7.822;2022-07-10T18:35:09;1.13;;;1.03;;
2564;SDS011;1292;48.020;7.822;2022-07-10T18:37:37;0.90;;;0.90;;
2564;SDS011;1292;48.020;7.822;2022-07-10T18:40:05;2.40;;;1.17;;
2564;SDS011;1292;48.020;7.822;2022-07-10T18:42:32;1.20;;;1.10;;
2564;SDS011;1292;48.020;7.822;2022-07-10T18:44:59;2.33;;;1.10;;
2564;SDS011;1292;48.020;7.822;2022-07-10T18:47:26;1.80;;;1.20;;
2564;SDS011;1292;48.020;7.822;2022-07-10T18:49:52;2.10;;;1.20;;
2564;SDS011;1292;48.020;7.822;2022-07-10T18:52:19;0.90;;;0.90;;
2564;SDS011;1292;48.020;7.822;2022-07-10T18:54:47;1.43;;;1.30;;
2564;SDS011;1292;48.020;7.822;2022-07-10T18:57:14;3.70;;;1.40;;
2564;SDS011;1292;48.020;7.822;2022-07-10T18:59:41;1.73;;;1.30;;
2564;SDS011;1292;48.020;7.822;2022-07-10T19:02:09;2.63;;;1.23;;
2564;SDS011;1292;48.020;7.822;2022-07-10T19:04:36;1.40;;;1.30;;
2564;SDS011;1292;48.020;7.822;2022-07-10T19:07:03;2.53;;;1.50;;
2564;SDS011;1292;48.020;7.822;2022-07-10T19:09:30;1.50;;;1.30;;
2564;SDS011;1292;48.020;7.822;2022-07-10T19:11:58;1.23;;;1.13;;
2564;SDS011;1292;48.020;7.822;2022-07-10T19:14:25;2.23;;;1.07;;
2564;SDS011;1292;48.020;7.822;2022-07-10T19:16:53;1.13;;;1.13;;
2564;SDS011;1292;48.020;7.822;2022-07-10T19:19:20;1.83;;;1.07;;
2564;SDS011;1292;48.020;7.822;2022-07-10T19:21:46;1.40;;;1.30;;
2564;SDS011;1292;48.020;7.822;2022-07-10T19:24:13;4.40;;;1.50;;
2564;SDS011;1292;48.020;7.822;2022-07-10T19:26:40;2.07;;;1.40;;
2564;SDS011;1292;48.020;7.822;2022-07-10T19:29:12;2.10;;;1.30;;
2564;SDS011;1292;48.020;7.822;2022-07-10T19:31:39;1.77;;;1.27;;
2564;SDS011;1292;48.020;7.822;2022-07-10T19:34:06;5.33;;;1.37;;
2564;SDS011;1292;48.020;7.822;2022-07-10T19:36:32;1.70;;;1.43;;
2564;SDS011;1292;48.020;7.822;2022-07-10T19:38:59;4.70;;;1.50;;
2564;SDS011;1292;48.020;7.822;2022-07-10T19:41:26;3.00;;;1.67;;
2564;SDS011;1292;48.020;7.822;2022-07-10T19:43:53;3.90;;;1.50;;
2564;SDS011;1292;48.020;7.822;2022-07-10T19:46:21;1.20;;;1.00;;
2564;SDS011;1292;48.020;7.822;2022-07-10T19:48:48;1.60;;;1.50;;
2564;SDS011;1292;48.020;7.822;2022-07-10T19:51:15;1.67;;;1.57;;
2564;SDS011;1292;48.020;7.822;2022-07-10T19:53:43;1.40;;;1.30;;
2564;SDS011;1292;48.020;7.822;2022-07-10T19:56:10;1.63;;;1.53;;
2564;SDS011;1292;48.020;7.822;2022-07-10T19:58:36;4.33;;;1.40;;
2564;SDS011;1292;48.020;7.822;2022-07-10T20:01:03;7.03;;;2.20;;
2564;SDS011;1292;48.020;7.822;2022-07-10T20:03:32;2.70;;;1.67;;
2564;SDS011;1292;48.020;7.822;2022-07-10T20:05:59;1.73;;;1.63;;
2564;SDS011;1292;48.020;7.822;2022-07-10T20:08:26;1.80;;;1.70;;
2564;SDS011;1292;48.020;7.822;2022-07-10T20:10:52;2.07;;;1.30;;
2564;SDS011;1292;48.020;7.822;2022-07-10T20:13:19;2.00;;;1.17;;
2564;SDS011;1292;48.020;7.822;2022-07-10T20:15:46;1.77;;;1.30;;
2564;SDS011;1292;48.020;7.822;2022-07-10T20:18:15;1.57;;;1.47;;
2564;SDS011;1292;48.020;7.822;2022-07-10T20:20:44;1.60;;;1.33;;
2564;SDS011;1292;48.020;7.822;2022-07-10T20:23:10;1.40;;;1.30;;
2564;SDS011;1292;48.020;7.822;2022-07-10T20:25:37;3.87;;;1.60;;
2564;SDS011;1292;48.020;7.822;2022-07-10T20:28:04;1.80;;;1.57;;
2564;SDS011;1292;48.020;7.822;2022-07-10T20:30:31;1.57;;;1.40;;
2564;SDS011;1292;48.020;7.822;2022-07-10T20:32:58;2.07;;;1.97;;
2564;SDS011;1292;48.020;7.822;2022-07-10T20:35:24;1.50;;;1.40;;
2564;SDS011;1292;48.020;7.822;2022-07-10T20:37:53;2.50;;;2.20;;
2564;SDS011;1292;48.020;7.822;2022-07-10T20:40:19;2.23;;;2.00;;
2564;SDS011;1292;48.020;7.822;2022-07-10T20:42:47;2.10;;;1.90;;
2564;SDS011;1292;48.020;7.822;2022-07-10T20:45:14;1.80;;;1.70;;
2564;SDS011;1292;48.020;7.822;2022-07-10T20:47:43;1.70;;;1.60;;
2564;SDS011;1292;48.020;7.822;2022-07-10T20:50:11;1.80;;;1.70;;
2564;SDS011;1292;48.020;7.822;2022-07-10T20:52:41;1.83;;;1.73;;
2564;SDS011;1292;48.020;7.822;2022-07-10T20:55:10;2.27;;;1.87;;
2564;SDS011;1292;48.020;7.822;2022-07-10T20:57:37;2.20;;;2.10;;
